createdAt,value
2023-05-16T00:00:35.399Z,16.15
2023-05-16T00:03:23.602Z,16.15
2023-05-16T00:05:52.225Z,16.12
2023-05-16T00:08:20.865Z,16.11
2023-05-16T00:10:49.116Z,16.09
2023-05-16T00:13:22.353Z,16.06
2023-05-16T00:15:52.166Z,16.05
2023-05-16T00:18:27.599Z,16.03
2023-05-16T00:20:56.462Z,16.01
2023-05-16T00:23:25.676Z,15.98
2023-05-16T00:25:54.163Z,15.94
2023-05-16T00:28:23.251Z,15.90
2023-05-16T00:30:51.670Z,15.87
2023-05-16T00:33:20.122Z,15.85
2023-05-16T00:35:49.559Z,15.81
2023-05-16T00:38:20.160Z,15.80
2023-05-16T00:40:48.760Z,15.80
2023-05-16T00:43:16.943Z,15.80
2023-05-16T00:45:45.879Z,15.80
2023-05-16T00:48:15.726Z,15.80
2023-05-16T00:50:44.336Z,15.79
2023-05-16T00:53:13.661Z,15.76
2023-05-16T00:55:41.823Z,15.73
2023-05-16T00:58:12.071Z,15.66
2023-05-16T01:00:41.052Z,15.62
2023-05-16T01:03:09.529Z,15.61
2023-05-16T01:05:40.316Z,15.57
2023-05-16T01:08:08.675Z,15.57
2023-05-16T01:10:49.764Z,15.59
2023-05-16T01:13:41.472Z,15.63
2023-05-16T01:16:38.865Z,15.68
2023-05-16T01:19:28.593Z,15.71
2023-05-16T01:22:17.413Z,15.71
2023-05-16T01:25:10.358Z,15.70
2023-05-16T01:27:39.472Z,15.70
2023-05-16T01:30:16.948Z,15.71
2023-05-16T01:32:45.377Z,15.72
2023-05-16T01:35:17.043Z,15.68
2023-05-16T01:38:02.270Z,15.67
2023-05-16T01:40:52.833Z,15.69
2023-05-16T01:43:49.563Z,15.71
2023-05-16T01:46:27.368Z,15.74
2023-05-16T01:49:22.477Z,15.76
2023-05-16T01:51:56.075Z,15.78
2023-05-16T01:54:26.721Z,15.79
2023-05-16T01:56:57.254Z,15.81
2023-05-16T01:59:27.180Z,15.81
2023-05-16T02:01:59.592Z,15.80
2023-05-16T02:04:28.032Z,15.78
2023-05-16T02:06:57.204Z,15.78
2023-05-16T02:09:26.234Z,15.78
2023-05-16T02:11:54.724Z,15.77
2023-05-16T02:14:23.115Z,15.75
2023-05-16T02:16:52.205Z,15.73
2023-05-16T02:19:21.050Z,15.73
2023-05-16T02:21:50.687Z,15.73
2023-05-16T02:24:19.620Z,15.73
2023-05-16T02:26:47.998Z,15.72
2023-05-16T02:29:16.997Z,15.71
2023-05-16T02:31:45.907Z,15.69
2023-05-16T02:34:14.073Z,15.68
2023-05-16T02:36:43.787Z,15.67
2023-05-16T02:39:12.168Z,15.67
2023-05-16T02:41:40.464Z,15.66
2023-05-16T02:44:11.194Z,15.65
2023-05-16T02:46:39.541Z,15.64
2023-05-16T02:49:08.072Z,15.64
2023-05-16T02:51:36.485Z,15.63
2023-05-16T02:54:05.838Z,15.63
2023-05-16T02:56:34.344Z,15.62
2023-05-16T02:59:04.249Z,15.62
2023-05-16T03:01:32.703Z,15.63
2023-05-16T03:04:01.561Z,15.63
2023-05-16T03:06:32.462Z,15.64
2023-05-16T03:09:01.087Z,15.65
2023-05-16T03:11:29.255Z,15.66
2023-05-16T03:14:01.556Z,15.68
2023-05-16T03:16:30.763Z,15.70
2023-05-16T03:18:59.134Z,15.72
2023-05-16T03:21:28.128Z,15.74
2023-05-16T03:23:56.859Z,15.76
2023-05-16T03:26:25.974Z,15.79
2023-05-16T03:28:54.807Z,15.81
2023-05-16T03:31:23.635Z,15.84
2023-05-16T03:33:52.096Z,15.86
2023-05-16T03:36:24.545Z,15.90
2023-05-16T03:38:52.853Z,15.94
2023-05-16T03:41:22.426Z,15.98
2023-05-16T03:43:50.630Z,16.02
2023-05-16T03:46:19.321Z,16.07
2023-05-16T03:48:47.815Z,16.13
2023-05-16T03:51:16.401Z,16.17
2023-05-16T03:53:44.890Z,16.20
2023-05-16T03:56:13.102Z,16.25
2023-05-16T03:58:41.351Z,16.28
2023-05-16T04:01:09.513Z,16.31
2023-05-16T04:03:38.846Z,16.34
2023-05-16T04:06:08.605Z,16.38
2023-05-16T04:08:36.835Z,16.40
2023-05-16T04:11:05.191Z,16.40
2023-05-16T04:13:33.648Z,16.40
2023-05-16T04:16:02.117Z,16.40
2023-05-16T04:18:30.454Z,16.40
2023-05-16T04:20:58.753Z,16.40
2023-05-16T04:23:27.142Z,16.40
2023-05-16T04:25:57.164Z,16.40
2023-05-16T04:28:25.654Z,16.41
2023-05-16T04:30:54.646Z,16.42
2023-05-16T04:33:23.032Z,16.42
2023-05-16T04:35:53.116Z,16.44
2023-05-16T04:38:21.758Z,16.47
2023-05-16T04:40:51.363Z,16.49
2023-05-16T04:43:20.259Z,16.51
2023-05-16T04:45:49.058Z,16.53
2023-05-16T04:48:17.272Z,16.53
2023-05-16T04:50:46.137Z,16.55
2023-05-16T04:53:15.335Z,16.58
2023-05-16T04:55:43.513Z,16.64
2023-05-16T04:58:11.792Z,16.72
2023-05-16T05:00:40.385Z,16.78
2023-05-16T05:03:09.126Z,16.85
2023-05-16T05:05:37.962Z,16.90
2023-05-16T05:08:06.975Z,16.96
2023-05-16T05:10:35.181Z,17.02
2023-05-16T05:13:03.635Z,17.10
2023-05-16T05:15:31.708Z,17.17
2023-05-16T05:18:00.285Z,17.22
2023-05-16T05:20:28.992Z,17.28
2023-05-16T05:22:57.534Z,17.32
2023-05-16T05:25:26.939Z,17.37
2023-05-16T05:27:55.999Z,17.42
2023-05-16T05:30:24.490Z,17.47
2023-05-16T05:32:54.058Z,17.52
2023-05-16T05:35:23.043Z,17.54
2023-05-16T05:37:52.294Z,17.67
2023-05-16T05:40:20.478Z,17.75
2023-05-16T05:42:48.854Z,17.81
2023-05-16T05:45:18.221Z,17.89
2023-05-16T05:47:46.879Z,17.97
2023-05-16T05:50:16.127Z,18.07
2023-05-16T05:52:44.496Z,18.14
2023-05-16T05:55:15.369Z,18.20
2023-05-16T05:57:45.934Z,18.24
2023-05-16T06:00:16.880Z,18.32
2023-05-16T06:02:45.276Z,18.38
2023-05-16T06:05:13.951Z,18.47
2023-05-16T06:07:42.731Z,18.55
2023-05-16T06:10:40.777Z,18.59
2023-05-16T06:13:19.716Z,18.67
2023-05-16T06:15:54.463Z,18.76
2023-05-16T06:18:22.580Z,18.90
2023-05-16T06:20:50.803Z,19.05
2023-05-16T06:23:21.143Z,19.16
2023-05-16T06:25:51.050Z,19.28
2023-05-16T06:28:19.538Z,19.44
2023-05-16T06:30:48.227Z,19.61
2023-05-16T06:33:16.954Z,19.78
2023-05-16T06:35:45.669Z,19.94
2023-05-16T06:38:13.960Z,20.08
2023-05-16T06:40:42.185Z,20.23
2023-05-16T06:43:11.077Z,20.42
2023-05-16T06:45:39.201Z,20.57
2023-05-16T06:48:08.792Z,20.69
2023-05-16T06:50:37.356Z,20.78
2023-05-16T06:53:07.578Z,20.83
2023-05-16T06:55:36.076Z,20.87
2023-05-16T06:58:04.481Z,20.90
2023-05-16T07:00:32.946Z,20.93
2023-05-16T07:03:01.602Z,20.97
2023-05-16T07:05:32.449Z,21.02
2023-05-16T07:08:01.069Z,21.06
2023-05-16T07:10:29.337Z,21.09
2023-05-16T07:12:58.642Z,21.15
2023-05-16T07:15:27.249Z,21.24
2023-05-16T07:17:55.953Z,21.28
2023-05-16T07:20:24.916Z,21.28
2023-05-16T07:22:53.310Z,21.30
2023-05-16T07:25:21.998Z,21.35
2023-05-16T07:27:50.794Z,21.35
2023-05-16T07:30:21.419Z,21.39
2023-05-16T07:32:50.216Z,21.44
2023-05-16T07:35:19.429Z,21.49
2023-05-16T07:37:47.947Z,21.57
2023-05-16T07:40:18.417Z,21.70
2023-05-16T07:42:46.837Z,21.80
2023-05-16T07:45:15.210Z,21.85
2023-05-16T07:47:44.039Z,21.91
2023-05-16T07:50:12.619Z,22.00
2023-05-16T07:52:40.915Z,22.09
2023-05-16T07:55:09.795Z,22.18
2023-05-16T07:57:38.466Z,22.25
2023-05-16T08:00:07.705Z,22.37
2023-05-16T08:02:41.255Z,22.42
2023-05-16T08:05:10.214Z,22.52
2023-05-16T08:07:38.774Z,22.65
2023-05-16T08:10:08.055Z,22.79
2023-05-16T08:12:37.161Z,22.89
2023-05-16T08:15:07.526Z,23.01
2023-05-16T08:17:35.926Z,23.15
2023-05-16T08:20:04.620Z,23.43
2023-05-16T08:22:33.609Z,23.64
2023-05-16T08:25:01.979Z,23.85
2023-05-16T08:27:31.093Z,24.03
2023-05-16T08:29:59.643Z,24.18
2023-05-16T08:32:28.171Z,24.29
2023-05-16T08:34:56.715Z,24.43
2023-05-16T08:37:25.220Z,24.59
2023-05-16T08:39:53.380Z,24.80
2023-05-16T08:42:21.667Z,25.02
2023-05-16T08:44:50.296Z,25.29
2023-05-16T08:47:25.699Z,25.51
2023-05-16T08:49:58.304Z,25.71
2023-05-16T08:52:31.489Z,25.90
2023-05-16T08:55:11.102Z,26.00
2023-05-16T08:57:41.384Z,25.85
2023-05-16T09:00:12.459Z,25.74
2023-05-16T09:02:45.132Z,25.65
2023-05-16T09:05:15.733Z,25.50
2023-05-16T09:07:44.895Z,25.50
2023-05-16T09:10:13.969Z,25.56
2023-05-16T09:12:43.519Z,25.66
2023-05-16T09:15:12.946Z,25.73
2023-05-16T09:17:47.077Z,25.83
2023-05-16T09:20:18.179Z,25.88
2023-05-16T09:22:55.070Z,25.96
2023-05-16T09:28:00.108Z,26.15
2023-05-16T09:30:31.711Z,26.25
2023-05-16T09:33:00.541Z,26.30
2023-05-16T09:38:07.968Z,26.30
2023-05-16T09:40:42.076Z,26.39
2023-05-16T09:43:10.403Z,26.57
2023-05-16T09:45:39.294Z,26.85
2023-05-16T09:48:13.404Z,27.32
2023-05-16T09:50:49.482Z,27.59
2023-05-16T09:53:18.506Z,27.59
2023-05-16T09:55:47.042Z,27.46
2023-05-16T09:58:18.773Z,27.29
2023-05-16T10:00:47.652Z,27.25
2023-05-16T10:03:16.250Z,27.25
2023-05-16T10:05:44.987Z,27.24
2023-05-16T10:08:14.948Z,27.21
2023-05-16T10:10:43.317Z,27.13
2023-05-16T10:13:12.906Z,27.02
2023-05-16T10:15:42.029Z,27.02
2023-05-16T10:18:13.666Z,27.13
2023-05-16T10:20:44.507Z,27.46
2023-05-16T10:23:17.714Z,27.92
2023-05-16T10:25:48.414Z,28.68
2023-05-16T10:28:17.034Z,29.38
2023-05-16T10:30:46.856Z,29.83
2023-05-16T10:33:17.710Z,30.10
2023-05-16T10:35:46.912Z,29.94
2023-05-16T10:38:18.241Z,29.51
2023-05-16T10:40:47.626Z,29.12
2023-05-16T10:43:26.073Z,28.72
2023-05-16T10:46:00.126Z,28.37
2023-05-16T10:48:31.320Z,27.94
2023-05-16T10:50:59.940Z,27.61
2023-05-16T10:53:33.712Z,27.36
2023-05-16T10:56:03.584Z,27.17
2023-05-16T10:58:35.621Z,27.09
2023-05-16T11:01:19.339Z,27.06
2023-05-16T11:04:00.469Z,27.46
2023-05-16T11:06:53.269Z,28.30
2023-05-16T11:09:28.226Z,29.40
2023-05-16T11:12:01.421Z,30.23
2023-05-16T11:14:33.175Z,30.69
2023-05-16T11:17:22.818Z,30.64
2023-05-16T11:19:52.732Z,30.61
2023-05-16T11:22:22.136Z,30.68
2023-05-16T11:25:05.938Z,31.08
2023-05-16T11:27:35.836Z,31.48
2023-05-16T11:30:07.176Z,31.46
2023-05-16T11:32:40.279Z,31.08
2023-05-16T11:35:15.225Z,30.69
2023-05-16T11:37:45.107Z,30.57
2023-05-16T11:40:14.767Z,30.95
2023-05-16T11:42:48.558Z,31.54
2023-05-16T11:45:18.229Z,31.80
2023-05-16T11:47:49.897Z,31.51
2023-05-16T11:50:21.155Z,31.08
2023-05-16T11:52:57.261Z,30.85
2023-05-16T11:55:41.460Z,30.64
2023-05-16T11:58:18.319Z,30.34
2023-05-16T12:00:51.496Z,30.00
2023-05-16T12:03:21.053Z,29.78
2023-05-16T12:06:01.100Z,29.78
2023-05-16T12:08:30.721Z,29.78
2023-05-16T12:10:59.501Z,29.71
2023-05-16T12:13:28.575Z,29.72
2023-05-16T12:16:00.694Z,29.77
2023-05-16T12:18:29.258Z,29.97
2023-05-16T12:20:57.664Z,30.60
2023-05-16T12:23:27.888Z,31.56
2023-05-16T12:25:57.928Z,32.28
2023-05-16T12:28:33.611Z,32.96
2023-05-16T12:31:02.325Z,33.61
2023-05-16T12:33:40.210Z,34.26
2023-05-16T12:36:15.448Z,34.95
2023-05-16T12:38:47.617Z,35.65
2023-05-16T12:41:20.284Z,36.11
2023-05-16T12:43:49.366Z,36.34
2023-05-16T12:46:20.017Z,36.18
2023-05-16T12:48:48.549Z,35.35
2023-05-16T12:51:19.213Z,34.72
2023-05-16T12:54:05.560Z,34.79
2023-05-16T12:56:41.563Z,34.75
2023-05-16T12:59:10.526Z,34.71
2023-05-16T13:01:40.785Z,35.20
2023-05-16T13:04:11.921Z,35.29
2023-05-16T13:06:57.838Z,35.06
2023-05-16T13:09:32.048Z,35.23
2023-05-16T13:12:01.407Z,35.12
2023-05-16T13:14:29.831Z,35.08
2023-05-16T13:17:00.144Z,35.18
2023-05-16T13:19:28.845Z,35.10
2023-05-16T13:21:57.345Z,34.84
2023-05-16T13:24:25.926Z,34.39
2023-05-16T13:26:54.277Z,33.84
2023-05-16T13:29:22.773Z,33.58
2023-05-16T13:31:51.700Z,33.51
2023-05-16T13:34:20.059Z,33.29
2023-05-16T13:36:54.289Z,32.78
2023-05-16T13:39:27.103Z,32.47
2023-05-16T13:41:56.215Z,32.96
2023-05-16T13:44:24.650Z,33.44
2023-05-16T13:46:53.222Z,33.82
2023-05-16T13:49:22.542Z,33.95
2023-05-16T13:51:52.457Z,33.73
2023-05-16T13:54:22.957Z,32.91
2023-05-16T13:56:51.300Z,32.06
2023-05-16T13:59:28.528Z,31.44
2023-05-16T14:02:06.455Z,30.83
2023-05-16T14:04:34.975Z,30.49
2023-05-16T14:07:03.429Z,30.46
2023-05-16T14:09:32.217Z,30.44
2023-05-16T14:12:03.076Z,30.38
2023-05-16T14:14:32.091Z,30.22
2023-05-16T14:17:00.454Z,30.00
2023-05-16T14:19:28.920Z,29.65
2023-05-16T14:21:57.620Z,29.25
2023-05-16T14:24:26.727Z,28.82
2023-05-16T14:26:55.627Z,28.46
2023-05-16T14:29:24.618Z,28.14
2023-05-16T14:31:53.780Z,27.85
2023-05-16T14:34:22.625Z,27.61
2023-05-16T14:36:52.289Z,27.40
2023-05-16T14:39:23.783Z,27.22
2023-05-16T14:41:51.921Z,27.02
2023-05-16T14:44:21.988Z,26.87
2023-05-16T14:46:51.833Z,26.75
2023-05-16T14:49:20.145Z,26.65
2023-05-16T14:51:50.729Z,26.59
2023-05-16T14:54:19.520Z,26.53
2023-05-16T14:56:57.008Z,26.44
2023-05-16T14:59:25.287Z,26.41
2023-05-16T15:01:54.091Z,26.42
2023-05-16T15:04:22.608Z,26.44
2023-05-16T15:06:50.955Z,26.45
2023-05-16T15:09:19.565Z,26.45
2023-05-16T15:11:48.111Z,26.42
2023-05-16T15:14:16.625Z,26.37
2023-05-16T15:16:45.226Z,26.44
2023-05-16T15:19:13.854Z,26.65
2023-05-16T15:21:42.193Z,26.81
2023-05-16T15:24:10.473Z,26.83
2023-05-16T15:26:40.076Z,26.87
2023-05-16T15:29:08.869Z,26.89
2023-05-16T15:31:37.812Z,26.86
2023-05-16T15:34:07.992Z,26.83
2023-05-16T15:36:36.379Z,26.79
2023-05-16T15:39:05.788Z,26.73
2023-05-16T15:42:00.663Z,26.66
2023-05-16T15:44:22.651Z,26.63
2023-05-16T15:46:51.514Z,26.70
2023-05-16T15:49:21.130Z,26.74
2023-05-16T15:51:51.025Z,26.78
2023-05-16T15:54:19.480Z,26.82
2023-05-16T15:56:47.645Z,26.81
2023-05-16T15:59:16.250Z,26.86
2023-05-16T16:01:44.738Z,26.75
2023-05-16T16:04:13.378Z,26.52
2023-05-16T16:06:42.280Z,26.31
2023-05-16T16:09:11.480Z,26.09
2023-05-16T16:11:39.783Z,25.89
2023-05-16T16:14:11.155Z,25.73
2023-05-16T16:16:40.949Z,25.59
2023-05-16T16:19:12.579Z,25.47
2023-05-16T16:21:41.071Z,25.35
2023-05-16T16:24:09.659Z,25.23
2023-05-16T16:26:38.251Z,25.12
2023-05-16T16:29:06.841Z,25.03
2023-05-16T16:31:35.884Z,24.96
2023-05-16T16:34:04.534Z,24.83
2023-05-16T16:36:33.018Z,24.68
2023-05-16T16:39:01.500Z,24.61
2023-05-16T16:41:30.397Z,24.55
2023-05-16T16:44:02.598Z,24.51
2023-05-16T16:46:31.721Z,24.50
2023-05-16T16:49:00.472Z,24.47
2023-05-16T16:51:31.414Z,24.42
2023-05-16T16:53:59.800Z,24.32
2023-05-16T16:56:28.303Z,24.21
2023-05-16T16:58:57.613Z,24.13
2023-05-16T17:01:28.961Z,24.06
2023-05-16T17:03:59.155Z,23.96
2023-05-16T17:06:30.231Z,23.86
2023-05-16T17:09:03.709Z,23.76
2023-05-16T17:11:36.155Z,23.67
2023-05-16T17:14:06.568Z,23.58
2023-05-16T17:16:35.463Z,23.52
2023-05-16T17:19:08.196Z,23.44
2023-05-16T17:21:37.404Z,23.35
2023-05-16T17:24:07.010Z,23.21
2023-05-16T17:26:36.213Z,23.06
2023-05-16T17:29:06.260Z,22.96
2023-05-16T17:31:34.845Z,22.88
2023-05-16T17:34:03.020Z,22.82
2023-05-16T17:36:31.437Z,22.71
2023-05-16T17:38:59.880Z,22.62
2023-05-16T17:41:28.286Z,22.53
2023-05-16T17:43:56.652Z,22.46
2023-05-16T17:46:24.926Z,22.38
2023-05-16T17:48:54.670Z,22.31
2023-05-16T17:51:22.847Z,22.23
2023-05-16T17:53:51.629Z,22.17
2023-05-16T17:56:19.899Z,22.12
2023-05-16T17:58:48.278Z,22.07
2023-05-16T18:01:16.669Z,22.01
2023-05-16T18:03:45.255Z,21.97
2023-05-16T18:06:14.390Z,21.92
2023-05-16T18:08:43.052Z,21.84
2023-05-16T18:11:13.740Z,21.73
2023-05-16T18:13:42.549Z,21.63
2023-05-16T18:16:10.877Z,21.55
2023-05-16T18:18:39.269Z,21.49
2023-05-16T18:21:08.928Z,21.45
2023-05-16T18:23:37.412Z,21.40
2023-05-16T18:26:06.095Z,21.35
2023-05-16T18:28:34.864Z,21.30
2023-05-16T18:31:03.853Z,21.20
2023-05-16T18:33:32.109Z,21.12
2023-05-16T18:36:00.684Z,21.05
2023-05-16T18:38:33.023Z,20.99
2023-05-16T18:41:02.186Z,20.92
2023-05-16T18:43:31.103Z,20.85
2023-05-16T18:46:03.714Z,20.76
2023-05-16T18:48:35.329Z,20.70
2023-05-16T18:51:04.613Z,20.67
2023-05-16T18:53:33.142Z,20.61
2023-05-16T18:56:01.697Z,20.57
2023-05-16T18:58:29.955Z,20.51
2023-05-16T19:00:58.800Z,20.39
2023-05-16T19:03:27.480Z,20.30
2023-05-16T19:05:56.071Z,20.24
2023-05-16T19:08:27.139Z,20.19
2023-05-16T19:10:59.574Z,20.12
2023-05-16T19:13:28.066Z,20.04
2023-05-16T19:15:56.454Z,19.98
2023-05-16T19:18:24.924Z,19.92
2023-05-16T19:20:53.624Z,19.86
2023-05-16T19:23:21.913Z,19.79
2023-05-16T19:25:50.491Z,19.72
2023-05-16T19:28:18.896Z,19.64
2023-05-16T19:30:48.084Z,19.57
2023-05-16T19:33:16.885Z,19.49
2023-05-16T19:35:45.822Z,19.42
2023-05-16T19:38:14.079Z,19.32
2023-05-16T19:40:42.357Z,19.24
2023-05-16T19:43:11.034Z,19.10
2023-05-16T19:45:39.628Z,19.02
2023-05-16T19:48:09.701Z,18.92
2023-05-16T19:50:38.537Z,18.85
2023-05-16T19:53:06.898Z,18.81
2023-05-16T19:58:26.926Z,18.74
2023-05-16T20:00:56.480Z,18.69
2023-05-16T20:03:25.617Z,18.61
2023-05-16T20:05:54.220Z,18.56
2023-05-16T20:08:22.620Z,18.50
2023-05-16T20:10:54.494Z,18.42
2023-05-16T20:13:23.583Z,18.34
2023-05-16T20:15:54.901Z,18.23
2023-05-16T20:18:23.714Z,18.10
2023-05-16T20:20:52.074Z,18.04
2023-05-16T20:23:20.591Z,17.94
2023-05-16T20:25:48.796Z,17.88
2023-05-16T20:28:17.579Z,17.84
2023-05-16T20:30:46.087Z,17.81
2023-05-16T20:33:14.595Z,17.80
2023-05-16T20:35:42.827Z,17.78
2023-05-16T20:38:11.299Z,17.76
2023-05-16T20:40:39.998Z,17.76
2023-05-16T20:43:08.620Z,17.74
2023-05-16T20:45:37.015Z,17.74
2023-05-16T20:48:05.900Z,17.75
2023-05-16T20:50:36.499Z,17.76
2023-05-16T20:53:05.475Z,17.73
2023-05-16T20:55:33.787Z,17.72
2023-05-16T20:58:02.680Z,17.72
2023-05-16T21:00:31.473Z,17.69
2023-05-16T21:03:00.330Z,17.64
2023-05-16T21:05:28.885Z,17.61
2023-05-16T21:07:57.436Z,17.58
2023-05-16T21:10:29.620Z,17.52
2023-05-16T21:12:58.066Z,17.40
2023-05-16T21:15:27.030Z,17.36
2023-05-16T21:17:56.226Z,17.29
2023-05-16T21:20:24.723Z,17.19
2023-05-16T21:22:53.184Z,17.13
2023-05-16T21:25:31.908Z,17.08
2023-05-16T21:28:00.782Z,17.02
2023-05-16T21:30:29.670Z,16.99
2023-05-16T21:32:58.774Z,16.94
2023-05-16T21:35:30.061Z,16.88
2023-05-16T21:37:59.170Z,16.84
2023-05-16T21:40:28.968Z,16.75
2023-05-16T21:43:00.191Z,16.69
2023-05-16T21:45:31.614Z,16.62
2023-05-16T21:48:04.457Z,16.54
2023-05-16T21:50:34.124Z,16.49
2023-05-16T21:53:02.649Z,16.42
2023-05-16T21:55:31.352Z,16.40
2023-05-16T21:57:59.770Z,16.36
2023-05-16T22:00:28.190Z,16.31
2023-05-16T22:02:57.130Z,16.30
2023-05-16T22:05:26.401Z,16.24
2023-05-16T22:07:56.266Z,16.20
2023-05-16T22:10:24.952Z,16.18
2023-05-16T22:12:53.416Z,16.15
2023-05-16T22:15:21.800Z,16.12
2023-05-16T22:17:50.123Z,16.07
2023-05-16T22:20:18.557Z,15.99
2023-05-16T22:22:47.274Z,15.96
2023-05-16T22:25:18.400Z,15.95
2023-05-16T22:27:49.965Z,15.94
2023-05-16T22:30:18.867Z,15.96
2023-05-16T22:32:47.641Z,15.99
2023-05-16T22:35:16.446Z,16.01
2023-05-16T22:37:44.870Z,16.02
2023-05-16T22:40:13.116Z,16.01
2023-05-16T22:42:41.702Z,16.01
2023-05-16T22:45:10.700Z,15.99
2023-05-16T22:47:39.671Z,15.94
2023-05-16T22:50:09.491Z,15.87
2023-05-16T22:52:41.585Z,15.84
2023-05-16T22:55:10.865Z,15.83
2023-05-16T22:57:39.702Z,15.79
2023-05-16T23:00:09.225Z,15.77
2023-05-16T23:02:37.594Z,15.77
2023-05-16T23:05:07.492Z,15.77
2023-05-16T23:07:36.306Z,15.76
2023-05-16T23:10:06.139Z,15.69
2023-05-16T23:12:34.397Z,15.62
2023-05-16T23:15:02.714Z,15.54
2023-05-16T23:17:30.972Z,15.43
2023-05-16T23:19:59.811Z,15.32
2023-05-16T23:22:28.172Z,15.26
2023-05-16T23:24:56.820Z,15.21
2023-05-16T23:27:25.814Z,15.15
2023-05-16T23:29:54.621Z,15.12
2023-05-16T23:32:23.133Z,15.09
2023-05-16T23:34:51.687Z,15.06
2023-05-16T23:37:20.135Z,15.03
2023-05-16T23:39:48.811Z,15.01
2023-05-16T23:42:17.443Z,15.00
2023-05-16T23:44:48.721Z,15.01
2023-05-16T23:47:17.895Z,14.98
2023-05-16T23:49:46.610Z,14.97
2023-05-16T23:52:15.013Z,14.95
2023-05-16T23:54:43.344Z,14.90
2023-05-16T23:57:11.885Z,14.82
2023-05-16T23:59:41.577Z,14.77
